Time;durP1;ratioP1;P1;durP2;ratioP2;P2;SDS_P1;SDS_P2;PMS_P1;PMS_P2;Temp;Humidity;BMP_temperature;BMP_pressure;BME280_temperature;BME280_humidity;BME280_pressure;Samples;Min_cycle;Max_cycle;Signal;HPM_P1;HPM_P2
2024/03/19 00:01:27;;;;;;;12.23;8.80;;;;;;;11.45;47.11;101359.00;4929495;28;20499;-73
2024/03/19 00:03:54;;;;;;;10.88;7.95;;;;;;;11.41;46.81;101350.13;4935346;29;20069;-74
2024/03/19 00:06:21;;;;;;;11.98;7.80;;;;;;;11.41;46.88;101357.50;4917488;28;20040;-74
2024/03/19 00:08:48;;;;;;;13.35;8.75;;;;;;;11.40;47.23;101344.78;4932161;29;20054;-74
2024/03/19 00:11:15;;;;;;;11.43;8.13;;;;;;;11.37;47.06;101345.94;4921687;28;20035;-74
2024/03/19 00:13:42;;;;;;;13.27;8.30;;;;;;;11.36;47.27;101347.78;4932320;29;20046;-74
2024/03/19 00:16:09;;;;;;;11.20;7.57;;;;;;;11.35;47.56;101350.66;4932201;29;20511;-74
2024/03/19 00:18:38;;;;;;;11.38;7.95;;;;;;;11.34;47.04;101352.53;4915186;28;20046;-74
2024/03/19 00:21:05;;;;;;;11.40;7.15;;;;;;;11.33;47.06;101355.38;4922298;28;20039;-76
2024/03/19 00:23:32;;;;;;;12.15;7.45;;;;;;;11.34;47.00;101362.63;4938967;28;20410;-75
2024/03/19 00:26:00;;;;;;;10.88;7.50;;;;;;;11.34;47.07;101359.88;4936977;29;20434;-75
2024/03/19 00:28:27;;;;;;;11.35;7.65;;;;;;;11.34;47.32;101366.22;4932290;28;20517;-75
2024/03/19 00:30:55;;;;;;;11.93;7.07;;;;;;;11.36;46.92;101360.63;4923633;28;20065;-75
2024/03/19 00:33:22;;;;;;;11.38;7.10;;;;;;;11.33;47.05;101356.25;4932730;28;20043;-75
2024/03/19 00:35:51;;;;;;;11.48;7.13;;;;;;;11.35;47.38;101367.09;4923110;28;20047;-75
2024/03/19 00:38:19;;;;;;;11.00;7.53;;;;;;;11.32;47.49;101357.25;4920905;28;20541;-75
2024/03/19 00:40:46;;;;;;;12.75;7.88;;;;;;;11.30;46.97;101359.28;4918955;28;20035;-75
2024/03/19 00:43:13;;;;;;;12.15;7.80;;;;;;;11.29;47.24;101362.13;4932862;28;20043;-75
2024/03/19 00:45:40;;;;;;;13.05;7.30;;;;;;;11.26;47.33;101360.50;4935572;29;20077;-75
2024/03/19 00:48:07;;;;;;;11.75;7.28;;;;;;;11.26;46.92;101360.50;4928708;28;20047;-76
2024/03/19 00:50:34;;;;;;;11.65;6.97;;;;;;;11.25;47.19;101360.63;4944484;28;20506;-75
2024/03/19 00:53:03;;;;;;;10.88;7.00;;;;;;;11.26;47.15;101352.28;4937702;28;20061;-75
2024/03/19 00:55:30;;;;;;;10.55;7.20;;;;;;;11.24;46.85;101359.75;4933732;28;20039;-75
2024/03/19 00:57:57;;;;;;;10.10;7.10;;;;;;;11.23;47.41;101351.66;4916577;29;20091;-75
2024/03/19 01:00:24;;;;;;;12.10;7.68;;;;;;;11.22;47.22;101355.44;4921602;29;20039;-75
2024/03/19 01:02:51;;;;;;;10.50;6.93;;;;;;;11.20;47.06;101350.06;4926226;29;20199;-75
2024/03/19 01:05:19;;;;;;;10.52;6.90;;;;;;;11.20;47.19;101344.59;4943404;29;20050;-76
2024/03/19 01:07:45;;;;;;;11.75;6.90;;;;;;;11.20;47.34;101354.69;4931688;29;20113;-76
2024/03/19 01:10:14;;;;;;;10.00;6.45;;;;;;;11.20;47.51;101355.56;4922580;28;20545;-75
2024/03/19 01:12:41;;;;;;;12.23;7.22;;;;;;;11.20;47.35;101343.72;4923119;28;20133;-75
2024/03/19 01:15:09;;;;;;;11.77;7.18;;;;;;;11.18;47.55;101348.44;4932895;29;20040;-75
2024/03/19 01:17:36;;;;;;;10.93;7.18;;;;;;;11.17;47.15;101346.69;4940314;28;20093;-76
2024/03/19 01:20:04;;;;;;;10.88;6.70;;;;;;;11.16;47.54;101343.09;4933453;29;20059;-75
2024/03/19 01:22:31;;;;;;;10.10;7.03;;;;;;;11.15;47.02;101338.59;4944743;28;20047;-75
2024/03/19 01:24:58;;;;;;;9.48;6.20;;;;;;;11.14;47.50;101342.34;4930923;29;20545;-75
2024/03/19 01:27:26;;;;;;;8.50;6.30;;;;;;;11.17;47.32;101349.44;4926434;28;20043;-75
2024/03/19 01:29:53;;;;;;;10.25;6.43;;;;;;;11.16;47.30;101348.56;4917978;28;20047;-75
2024/03/19 01:32:20;;;;;;;9.60;6.35;;;;;;;11.15;47.30;101335.84;4938467;28;20031;-75
2024/03/19 01:34:47;;;;;;;10.15;6.63;;;;;;;11.16;47.77;101336.72;4935139;29;20043;-75
2024/03/19 01:37:14;;;;;;;9.73;6.50;;;;;;;11.16;47.64;101345.81;4933311;28;20044;-75
2024/03/19 01:39:41;;;;;;;10.05;6.30;;;;;;;11.16;47.57;101343.09;4933208;29;20044;-75
2024/03/19 01:42:08;;;;;;;10.07;6.50;;;;;;;11.17;47.29;101342.09;4924205;28;20036;-75
2024/03/19 01:44:36;;;;;;;10.52;6.28;;;;;;;11.18;47.89;101332.88;4919349;28;20047;-75
2024/03/19 01:47:04;;;;;;;10.70;6.32;;;;;;;11.16;47.32;101332.13;4932101;29;20051;-75
2024/03/19 01:49:33;;;;;;;10.30;6.28;;;;;;;11.18;47.45;101329.25;4922049;28;20048;-75
2024/03/19 01:52:01;;;;;;;11.05;6.65;;;;;;;11.15;47.34;101324.91;4924567;29;20126;-75
2024/03/19 01:54:30;;;;;;;10.32;6.40;;;;;;;11.15;47.37;101326.78;4934596;28;20385;-75
2024/03/19 01:56:57;;;;;;;9.75;6.47;;;;;;;11.12;47.24;101322.44;4936087;28;20379;-75
2024/03/19 01:59:24;;;;;;;10.90;6.90;;;;;;;11.10;47.39;101318.94;4934035;28;20048;-75
2024/03/19 02:01:53;;;;;;;8.60;5.82;;;;;;;11.09;47.64;101317.19;4934566;28;20050;-75
2024/03/19 02:04:20;;;;;;;10.45;6.50;;;;;;;11.05;47.61;101310.25;4937028;29;20399;-75
2024/03/19 02:06:47;;;;;;;8.50;6.43;;;;;;;11.02;47.18;101304.13;4925803;28;20523;-75
2024/03/19 02:09:14;;;;;;;10.93;6.65;;;;;;;11.00;47.20;101304.25;4940680;28;20039;-75
2024/03/19 02:11:41;;;;;;;10.23;6.30;;;;;;;10.97;46.86;101301.78;4939440;28;20042;-75
2024/03/19 02:14:08;;;;;;;10.07;6.45;;;;;;;10.93;47.56;101303.91;4919490;29;20047;-75
2024/03/19 02:16:36;;;;;;;10.73;6.70;;;;;;;10.91;47.31;101303.16;4937013;29;20425;-75
2024/03/19 02:19:06;;;;;;;9.90;6.55;;;;;;;10.89;47.22;101298.81;4919891;29;20047;-75
2024/03/19 02:21:34;;;;;;;9.65;6.18;;;;;;;10.86;47.00;101304.53;4928524;28;20053;-75
2024/03/19 02:24:04;;;;;;;8.88;5.80;;;;;;;10.84;47.71;101307.38;4919521;29;20043;-75
2024/03/19 02:26:32;;;;;;;9.30;5.93;;;;;;;10.82;47.46;101292.94;4934620;29;20040;-75
2024/03/19 02:29:00;;;;;;;10.52;6.43;;;;;;;10.79;47.09;101292.34;4932358;29;20412;-75
2024/03/19 02:31:28;;;;;;;10.57;6.97;;;;;;;10.79;47.20;101293.22;4936768;29;20635;-75
2024/03/19 02:33:56;;;;;;;9.40;6.65;;;;;;;10.76;47.58;101282.50;4940581;29;20055;-75
2024/03/19 02:36:23;;;;;;;8.73;6.00;;;;;;;10.75;47.09;101290.84;4933138;29;20091;-75
2024/03/19 02:38:50;;;;;;;9.70;6.50;;;;;;;10.73;47.18;101282.75;4931684;29;20062;-75
2024/03/19 02:41:19;;;;;;;8.52;6.15;;;;;;;10.74;47.21;101289.09;4932392;28;20102;-75
2024/03/19 02:43:46;;;;;;;10.52;6.30;;;;;;;10.71;47.27;101286.63;4937230;29;20066;-75
2024/03/19 02:46:12;;;;;;;8.00;5.68;;;;;;;10.69;47.47;101291.34;4922247;29;20050;-75
2024/03/19 02:48:39;;;;;;;9.18;5.30;;;;;;;10.68;47.97;101287.72;4935679;29;20039;-75
2024/03/19 02:51:06;;;;;;;9.20;5.88;;;;;;;10.67;47.53;101293.31;4917055;29;20043;-75
2024/03/19 02:53:33;;;;;;;9.13;5.50;;;;;;;10.67;47.41;101291.47;4934572;28;20109;-75
2024/03/19 02:56:00;;;;;;;9.15;5.57;;;;;;;10.67;47.39;101291.47;4912755;29;20047;-75
2024/03/19 02:58:29;;;;;;;9.68;5.80;;;;;;;10.68;47.67;101297.81;4931919;28;20043;-75
2024/03/19 03:00:55;;;;;;;10.32;5.85;;;;;;;10.67;47.55;101298.81;4925371;29;20051;-74
2024/03/19 03:03:22;;;;;;;8.60;5.80;;;;;;;10.67;48.05;101296.06;4933214;29;20043;-75
2024/03/19 03:05:49;;;;;;;9.93;5.43;;;;;;;10.67;47.98;101299.66;4920315;29;20048;-75
2024/03/19 03:08:16;;;;;;;10.32;5.65;;;;;;;10.68;47.53;101295.06;4933732;28;20039;-74
2024/03/19 03:10:43;;;;;;;9.73;5.97;;;;;;;10.69;47.95;101303.16;4921969;28;20046;-75
2024/03/19 03:13:10;;;;;;;9.98;5.90;;;;;;;10.70;47.62;101301.31;4940084;29;20043;-74
2024/03/19 03:15:39;;;;;;;8.82;5.88;;;;;;;10.71;47.88;101306.66;4915271;29;20406;-75
2024/03/19 03:18:06;;;;;;;9.15;5.40;;;;;;;10.72;47.86;101311.13;4935023;29;20353;-75
2024/03/19 03:20:33;;;;;;;10.43;5.82;;;;;;;10.74;48.10;101313.72;4920641;28;20047;-74
2024/03/19 03:23:00;;;;;;;8.55;5.43;;;;;;;10.75;48.22;101318.22;4936051;29;20487;-75
2024/03/19 03:25:27;;;;;;;8.18;5.38;;;;;;;10.76;47.60;101320.84;4922135;28;20043;-75
2024/03/19 03:27:54;;;;;;;8.20;4.97;;;;;;;10.78;47.76;101315.25;4921437;29;20441;-75
2024/03/19 03:30:22;;;;;;;8.10;5.28;;;;;;;10.80;48.19;101318.72;4939412;28;20525;-75
2024/03/19 03:32:51;;;;;;;9.98;5.13;;;;;;;10.82;48.02;101317.59;4918700;29;20066;-74
2024/03/19 03:35:18;;;;;;;8.95;5.30;;;;;;;10.83;47.61;101324.81;4938580;28;20050;-75
2024/03/19 03:37:46;;;;;;;7.60;5.05;;;;;;;10.84;48.06;101325.69;4914925;29;20110;-75
2024/03/19 03:40:17;;;;;;;9.57;5.70;;;;;;;10.85;48.09;101320.09;4914826;28;20086;-75
2024/03/19 03:42:44;;;;;;;8.52;5.60;;;;;;;10.85;48.17;101322.81;4921144;29;20048;-75
2024/03/19 03:45:12;;;;;;;7.88;4.57;;;;;;;10.86;47.85;101320.97;4926202;29;20090;-75
2024/03/19 03:47:39;;;;;;;8.43;5.00;;;;;;;10.87;47.57;101322.69;4941363;28;20086;-74
2024/03/19 03:50:08;;;;;;;7.90;5.13;;;;;;;10.88;48.17;101322.59;4921227;28;20078;-75
2024/03/19 03:52:36;;;;;;;8.60;4.97;;;;;;;10.88;47.83;101327.19;4915220;28;20043;-74
2024/03/19 03:55:04;;;;;;;9.23;5.03;;;;;;;10.88;47.98;101322.59;4932783;29;20046;-75
2024/03/19 03:57:31;;;;;;;8.30;5.15;;;;;;;10.90;47.67;101333.38;4921515;28;20040;-75
2024/03/19 03:59:58;;;;;;;8.73;5.15;;;;;;;10.91;48.00;101337.88;4910599;29;20087;-75
2024/03/19 04:02:25;;;;;;;9.80;5.50;;;;;;;10.91;48.16;101330.53;4914750;29;20039;-76
2024/03/19 04:04:52;;;;;;;7.72;5.13;;;;;;;10.93;48.09;101341.38;4930482;29;20051;-74
2024/03/19 04:07:21;;;;;;;9.20;5.03;;;;;;;10.94;48.19;101338.50;4933398;28;20047;-75
2024/03/19 04:09:48;;;;;;;8.23;5.22;;;;;;;10.93;48.28;101344.09;4911241;29;20042;-74
2024/03/19 04:12:15;;;;;;;8.52;5.55;;;;;;;10.93;48.01;101341.38;4931995;28;20048;-75
2024/03/19 04:14:42;;;;;;;8.43;5.50;;;;;;;10.93;48.04;101339.50;4933576;29;20047;-75
2024/03/19 04:17:08;;;;;;;8.13;5.45;;;;;;;10.93;48.28;101344.09;4929925;29;20062;-75
2024/03/19 04:19:35;;;;;;;7.93;4.97;;;;;;;10.93;47.87;101346.84;4938305;28;20510;-75
2024/03/19 04:22:02;;;;;;;9.25;5.38;;;;;;;10.92;48.08;101347.84;4923521;29;20047;-75
2024/03/19 04:24:31;;;;;;;8.20;5.57;;;;;;;10.92;47.71;101359.66;4930776;28;20044;-75
2024/03/19 04:26:58;;;;;;;6.78;4.65;;;;;;;10.91;47.74;101351.56;4931510;28;20050;-75
2024/03/19 04:29:25;;;;;;;9.50;5.47;;;;;;;10.89;47.79;101361.78;4935218;28;20040;-74
2024/03/19 04:31:52;;;;;;;8.88;5.68;;;;;;;10.88;48.02;101363.66;4939553;29;20136;-75
2024/03/19 04:34:19;;;;;;;8.52;5.20;;;;;;;10.88;47.67;101354.56;4917091;28;20054;-75
2024/03/19 04:36:46;;;;;;;8.55;4.88;;;;;;;10.87;48.16;101367.38;4940830;29;20526;-75
2024/03/19 04:39:17;;;;;;;7.88;5.38;;;;;;;10.88;48.09;101362.78;4932850;29;20044;-75
2024/03/19 04:41:46;;;;;;;9.93;5.25;;;;;;;10.86;47.99;101368.38;4935033;29;20071;-75
2024/03/19 04:44:13;;;;;;;7.90;5.45;;;;;;;10.85;47.69;101374.84;4945280;28;20051;-75
2024/03/19 04:46:40;;;;;;;9.90;5.70;;;;;;;10.85;47.76;101377.59;4921212;28;20406;-75
2024/03/19 04:49:07;;;;;;;7.85;4.90;;;;;;;10.85;47.69;101374.84;4929216;29;20035;-75
2024/03/19 04:51:35;;;;;;;8.30;5.53;;;;;;;10.86;47.97;101383.94;4927552;28;20047;-75
2024/03/19 04:54:01;;;;;;;8.02;5.55;;;;;;;10.85;48.33;101379.44;4915993;29;20467;-75
2024/03/19 04:56:28;;;;;;;8.52;5.13;;;;;;;10.84;47.87;101372.22;4940363;28;20090;-75
2024/03/19 04:58:57;;;;;;;8.27;5.25;;;;;;;10.86;47.86;101384.81;4937626;28;20049;-75
2024/03/19 05:01:24;;;;;;;8.95;5.50;;;;;;;10.84;48.32;101377.72;4929984;28;20327;-75
2024/03/19 05:03:51;;;;;;;9.55;5.40;;;;;;;10.84;47.89;101378.59;4928536;29;20066;-74
2024/03/19 05:06:18;;;;;;;8.50;5.95;;;;;;;10.85;47.93;101379.44;4940041;29;20537;-75
2024/03/19 05:08:45;;;;;;;8.13;5.50;;;;;;;10.85;47.84;101379.44;4917128;29;20055;-74
2024/03/19 05:11:12;;;;;;;7.32;5.22;;;;;;;10.85;48.07;101382.19;4940506;29;20047;-75
2024/03/19 05:13:38;;;;;;;10.15;5.57;;;;;;;10.84;47.91;101383.19;4936293;29;20095;-75
2024/03/19 05:16:08;;;;;;;8.13;5.50;;;;;;;10.85;48.23;101380.31;4932145;29;20048;-75
2024/03/19 05:18:35;;;;;;;8.50;5.57;;;;;;;10.82;48.06;101377.81;4941336;28;20042;-75
2024/03/19 05:21:01;;;;;;;10.20;5.97;;;;;;;10.82;48.17;101379.69;4942979;28;20035;-74
2024/03/19 05:23:28;;;;;;;9.73;5.38;;;;;;;10.81;48.11;101388.94;4923167;28;20044;-75
2024/03/19 05:25:56;;;;;;;9.32;5.70;;;;;;;10.80;47.83;101390.78;4935918;29;20050;-74
2024/03/19 05:28:23;;;;;;;10.60;5.75;;;;;;;10.79;47.94;101393.66;4945947;28;20526;-75
2024/03/19 05:30:50;;;;;;;8.23;5.70;;;;;;;10.79;48.33;101393.66;4940965;29;20039;-75
2024/03/19 05:33:19;;;;;;;8.85;5.60;;;;;;;10.80;47.75;101396.28;4925953;28;20050;-74
2024/03/19 05:35:46;;;;;;;9.52;5.80;;;;;;;10.77;47.91;101393.75;4941894;29;20039;-75
2024/03/19 05:38:13;;;;;;;9.07;5.57;;;;;;;10.78;48.18;101400.09;4920308;29;20047;-74
2024/03/19 05:40:40;;;;;;;9.75;5.32;;;;;;;10.75;48.38;101398.47;4943617;28;20039;-74
2024/03/19 05:43:07;;;;;;;8.07;5.40;;;;;;;10.74;48.32;101402.22;4948712;28;20047;-74
2024/03/19 05:45:35;;;;;;;12.50;5.65;;;;;;;10.73;47.94;101405.09;4934143;28;20043;-74
2024/03/19 05:48:03;;;;;;;9.10;5.72;;;;;;;10.72;47.92;101400.59;4940213;28;20039;-74
2024/03/19 05:50:32;;;;;;;9.10;5.10;;;;;;;10.73;48.30;101403.19;4937033;28;20032;-75
2024/03/19 05:53:00;;;;;;;10.55;5.90;;;;;;;10.70;47.98;101400.72;4937185;29;20060;-74
2024/03/19 05:55:27;;;;;;;9.23;5.43;;;;;;;10.70;48.14;101410.81;4946705;28;20396;-74
2024/03/19 05:57:55;;;;;;;9.00;5.82;;;;;;;10.69;48.14;101407.19;4925130;29;20039;-74
2024/03/19 06:00:22;;;;;;;9.25;5.45;;;;;;;10.69;48.28;101414.53;4931160;28;20103;-75
2024/03/19 06:02:50;;;;;;;7.85;5.35;;;;;;;10.68;47.82;101416.41;4941421;28;20039;-74
2024/03/19 06:05:17;;;;;;;10.25;5.97;;;;;;;10.67;47.98;101419.25;4925572;28;20050;-74
2024/03/19 06:07:45;;;;;;;8.18;5.55;;;;;;;10.68;48.04;101421.00;4933639;29;20050;-74
2024/03/19 06:10:12;;;;;;;9.27;6.28;;;;;;;10.66;47.98;101414.75;4940557;29;20059;-75
2024/03/19 06:12:40;;;;;;;9.18;5.70;;;;;;;10.65;48.05;101427.56;4944296;29;20035;-75
2024/03/19 06:15:09;;;;;;;9.80;5.25;;;;;;;10.67;47.88;101421.97;4915256;28;20051;-75
2024/03/19 06:17:37;;;;;;;8.85;5.25;;;;;;;10.66;48.01;101428.44;4931636;28;20066;-75
2024/03/19 06:20:08;;;;;;;9.20;5.22;;;;;;;10.66;48.33;101425.72;4934847;29;20471;-74
2024/03/19 06:22:35;;;;;;;8.57;5.43;;;;;;;10.65;47.87;101430.31;4943085;28;20042;-74
2024/03/19 06:25:04;;;;;;;8.10;5.40;;;;;;;10.67;48.22;101438.41;4934079;29;20047;-74
2024/03/19 06:27:31;;;;;;;9.25;5.22;;;;;;;10.66;48.11;101434.78;4933099;28;20404;-74
2024/03/19 06:29:58;;;;;;;9.00;5.13;;;;;;;10.66;48.24;101436.66;4935046;29;20047;-74
2024/03/19 06:32:25;;;;;;;8.60;5.00;;;;;;;10.66;48.06;101444.88;4905605;28;20062;-75
2024/03/19 06:34:53;;;;;;;11.07;6.10;;;;;;;10.67;48.11;101441.16;4940862;29;20055;-75
2024/03/19 06:37:20;;;;;;;9.40;5.75;;;;;;;10.67;48.42;101441.16;4931786;28;20519;-74
2024/03/19 06:39:47;;;;;;;8.52;5.38;;;;;;;10.66;48.09;101440.28;4910749;29;20305;-75
2024/03/19 06:42:15;;;;;;;9.30;5.63;;;;;;;10.67;48.26;101441.16;4933786;29;20050;-75
2024/03/19 06:44:42;;;;;;;9.73;6.18;;;;;;;10.66;48.09;101453.09;4935659;28;20530;-75
2024/03/19 06:47:09;;;;;;;7.90;5.45;;;;;;;10.67;48.50;101454.84;4925523;29;20130;-75
2024/03/19 06:49:36;;;;;;;9.23;5.95;;;;;;;10.66;48.79;101447.59;4935217;28;20388;-74
2024/03/19 06:52:02;;;;;;;9.02;6.22;;;;;;;10.67;48.33;101452.09;4934672;29;20050;-75
2024/03/19 06:54:29;;;;;;;9.40;5.55;;;;;;;10.67;48.61;101458.44;4919456;28;20054;-75
2024/03/19 06:56:56;;;;;;;9.25;5.88;;;;;;;10.69;48.49;101445.50;4937941;29;20090;-74
2024/03/19 06:59:27;;;;;;;9.38;5.97;;;;;;;10.72;48.69;101463.56;4916550;28;20070;-74
2024/03/19 07:01:54;;;;;;;9.57;5.97;;;;;;;10.71;48.63;101456.34;4917603;29;20055;-74
2024/03/19 07:04:21;;;;;;;10.55;6.30;;;;;;;10.72;48.62;101463.56;4933282;28;20042;-74
2024/03/19 07:06:48;;;;;;;9.07;5.43;;;;;;;10.73;48.63;101462.59;4931567;29;20031;-74
2024/03/19 07:09:17;;;;;;;8.90;5.97;;;;;;;10.74;48.21;101462.44;4908047;28;20043;-74
2024/03/19 07:11:44;;;;;;;10.60;5.88;;;;;;;10.75;48.64;101457.84;4918754;29;20051;-73
2024/03/19 07:14:11;;;;;;;9.63;5.95;;;;;;;10.75;48.09;101463.31;4930962;29;20058;-74
2024/03/19 07:16:40;;;;;;;9.02;5.60;;;;;;;10.76;48.04;101471.41;4910292;28;20052;-74
2024/03/19 07:19:08;;;;;;;10.57;6.65;;;;;;;10.75;48.05;101466.06;4930879;29;20047;-74
2024/03/19 07:21:35;;;;;;;9.68;5.88;;;;;;;10.77;48.18;101469.53;4918435;28;20276;-74
2024/03/19 07:24:01;;;;;;;10.52;6.20;;;;;;;10.75;48.18;101475.13;4928215;29;20044;-74
2024/03/19 07:26:28;;;;;;;8.70;5.68;;;;;;;10.76;48.25;101462.31;4917571;28;20052;-74
2024/03/19 07:28:56;;;;;;;9.63;5.93;;;;;;;10.76;48.37;101473.28;4917138;29;20507;-74
2024/03/19 07:31:23;;;;;;;10.77;6.30;;;;;;;10.76;48.22;101479.63;4913322;29;20134;-74
2024/03/19 07:33:51;;;;;;;9.25;5.88;;;;;;;10.79;48.03;101484.00;4935294;29;20067;-74
2024/03/19 07:36:18;;;;;;;9.45;5.53;;;;;;;10.79;48.12;101484.00;4908818;29;20043;-74
2024/03/19 07:38:45;;;;;;;9.10;5.60;;;;;;;10.81;48.05;101484.75;4917923;28;20039;-73
2024/03/19 07:41:12;;;;;;;10.85;5.50;;;;;;;10.81;48.02;101485.59;4929906;29;20127;-74
2024/03/19 07:43:39;;;;;;;8.85;5.65;;;;;;;10.83;48.32;101485.47;4927236;28;20031;-74
2024/03/19 07:46:06;;;;;;;7.60;5.45;;;;;;;10.84;48.00;101488.09;4944781;28;20047;-74
2024/03/19 07:48:34;;;;;;;8.52;6.07;;;;;;;10.86;48.44;101493.47;4932544;29;20050;-73
2024/03/19 07:51:03;;;;;;;9.25;5.53;;;;;;;10.87;48.37;101490.63;4930437;29;20054;-74
2024/03/19 07:53:30;;;;;;;9.00;5.88;;;;;;;10.87;48.51;101501.56;4915966;28;20416;-73
2024/03/19 07:55:57;;;;;;;9.43;5.72;;;;;;;10.88;48.51;101496.97;5028131;23;20047;-74
2024/03/19 07:58:23;;;;;;;9.63;6.15;;;;;;;10.90;48.47;101504.03;4897730;29;20043;-75
2024/03/19 08:00:51;;;;;;;8.65;5.28;;;;;;;10.91;48.29;101505.78;4888786;29;20507;-74
2024/03/19 08:03:18;;;;;;;9.38;5.63;;;;;;;10.91;48.09;101496.69;4898828;29;20567;-74
2024/03/19 08:05:46;;;;;;;8.40;5.68;;;;;;;10.93;48.44;101500.19;4885671;29;20048;-74
2024/03/19 08:08:16;;;;;;;11.40;5.78;;;;;;;10.95;48.40;101509.19;4920751;29;20385;-74
2024/03/19 08:10:43;;;;;;;10.65;5.47;;;;;;;10.93;48.44;101509.28;4881965;29;20404;-74
2024/03/19 08:13:10;;;;;;;8.50;5.82;;;;;;;10.95;48.30;101500.97;4888760;29;20445;-73
2024/03/19 08:15:37;;;;;;;8.43;5.18;;;;;;;10.96;48.49;101499.97;4901847;29;20084;-74
2024/03/19 08:18:04;;;;;;;10.00;5.90;;;;;;;10.97;47.86;101498.97;4902807;29;20092;-74
2024/03/19 08:20:31;;;;;;;10.80;6.88;;;;;;;10.98;47.73;101490.63;4895743;29;20415;-74
2024/03/19 08:23:02;;;;;;;10.32;5.93;;;;;;;10.98;47.60;101503.44;4916206;29;20104;-73
2024/03/19 08:25:30;;;;;;;10.27;5.32;;;;;;;10.99;47.95;101489.63;4920329;29;20534;-74
2024/03/19 08:27:57;;;;;;;9.85;5.50;;;;;;;10.98;47.78;101500.69;4903184;29;20080;-74
2024/03/19 08:30:25;;;;;;;9.75;5.57;;;;;;;10.97;47.65;101491.63;4902161;29;20460;-74
2024/03/19 08:32:53;;;;;;;11.10;5.93;;;;;;;10.96;47.72;101489.88;4896852;29;20056;-74
2024/03/19 08:35:20;;;;;;;9.45;5.78;;;;;;;10.96;47.61;101491.75;4882224;29;20075;-74
2024/03/19 08:37:48;;;;;;;9.68;6.07;;;;;;;10.95;47.64;101490.88;4903949;29;20504;-74
2024/03/19 08:40:15;;;;;;;10.10;5.63;;;;;;;10.94;47.51;101489.13;4917521;29;20456;-75
2024/03/19 08:42:43;;;;;;;9.68;5.55;;;;;;;10.95;47.69;101488.16;4896396;29;20044;-75
2024/03/19 08:45:11;;;;;;;12.15;6.05;;;;;;;10.94;47.57;101482.78;4902319;29;20087;-74
2024/03/19 08:47:39;;;;;;;9.68;5.60;;;;;;;10.95;47.69;101490.00;4899904;29;20048;-74
2024/03/19 08:50:08;;;;;;;9.48;6.22;;;;;;;10.95;48.03;101496.38;4896787;29;20055;-75
2024/03/19 08:52:36;;;;;;;9.45;6.00;;;;;;;10.98;47.76;101496.09;4895851;29;20044;-75
2024/03/19 08:55:04;;;;;;;9.02;5.43;;;;;;;10.99;48.23;101491.50;4883666;29;20044;-74
2024/03/19 08:57:31;;;;;;;8.18;5.47;;;;;;;11.00;48.06;101479.53;4906686;29;20051;-74
2024/03/19 09:00:00;;;;;;;9.05;5.38;;;;;;;11.05;47.96;101487.41;4899429;29;20051;-75
2024/03/19 09:02:27;;;;;;;8.85;5.03;;;;;;;11.05;48.37;101490.16;4900427;29;20048;-75
2024/03/19 09:04:54;;;;;;;8.15;5.10;;;;;;;11.08;47.84;101487.16;4901726;29;20464;-75
2024/03/19 09:07:22;;;;;;;9.68;5.32;;;;;;;11.10;48.45;101491.53;4903989;29;20044;-75
2024/03/19 09:09:51;;;;;;;9.73;6.28;;;;;;;11.14;48.13;101492.16;4902156;29;20052;-73
2024/03/19 09:12:18;;;;;;;8.75;5.07;;;;;;;11.19;48.19;101495.41;4898933;29;20362;-76
2024/03/19 09:14:45;;;;;;;8.55;5.65;;;;;;;11.22;48.70;101487.81;4900553;29;20051;-75
2024/03/19 09:17:13;;;;;;;9.10;4.75;;;;;;;11.29;48.30;101486.31;4907735;29;20040;-75
2024/03/19 09:19:40;;;;;;;8.75;4.95;;;;;;;11.32;48.57;101486.06;4913696;29;20416;-75
2024/03/19 09:22:07;;;;;;;8.95;5.25;;;;;;;11.37;48.15;101480.22;4903273;29;20043;-75
2024/03/19 09:24:34;;;;;;;7.10;4.97;;;;;;;11.42;48.14;101483.44;4884282;29;20041;-76
2024/03/19 09:27:04;;;;;;;9.88;4.68;;;;;;;11.48;48.52;101484.81;4910408;29;20407;-73
2024/03/19 09:29:31;;;;;;;8.38;4.90;;;;;;;11.52;48.72;101478.97;4900801;29;20055;-73
2024/03/19 09:31:58;;;;;;;7.55;4.72;;;;;;;11.58;48.84;101481.19;4917198;29;20044;-75
2024/03/19 09:34:26;;;;;;;8.18;4.90;;;;;;;11.67;48.60;101482.34;4897274;29;20519;-75
2024/03/19 09:36:53;;;;;;;8.13;5.20;;;;;;;11.71;48.62;101481.09;4905441;29;20523;-75
2024/03/19 09:39:20;;;;;;;10.27;5.18;;;;;;;11.78;48.03;101478.72;4911254;29;20063;-75
2024/03/19 09:41:57;;;;;;;9.18;5.20;;;;;;;11.86;47.71;101481.69;4901588;29;20032;-75
2024/03/19 09:44:25;;;;;;;10.20;6.03;;;;;;;11.89;47.69;101482.28;4918223;29;20146;-75
2024/03/19 09:46:52;;;;;;;8.35;5.28;;;;;;;11.97;47.51;101485.25;4902416;29;20051;-75
2024/03/19 09:49:20;;;;;;;8.63;5.03;;;;;;;12.01;47.95;101481.28;4899670;29;20047;-75
2024/03/19 09:51:49;;;;;;;7.07;4.50;;;;;;;12.09;47.46;101481.50;4899539;29;20063;-75
2024/03/19 09:54:16;;;;;;;9.20;4.68;;;;;;;12.13;47.86;101481.25;4897204;29;20047;-74
2024/03/19 09:56:46;;;;;;;8.63;4.53;;;;;;;12.19;47.61;101476.13;4901809;29;20044;-75
2024/03/19 09:59:16;;;;;;;10.30;5.30;;;;;;;12.27;47.50;101487.31;4894889;29;20135;-75
2024/03/19 10:01:43;;;;;;;9.27;5.07;;;;;;;12.31;47.49;101476.94;4889660;29;20590;-75
2024/03/19 10:04:15;;;;;;;9.68;4.72;;;;;;;12.37;46.98;101477.31;4893351;29;20043;-75
2024/03/19 10:06:42;;;;;;;9.95;4.90;;;;;;;12.41;47.88;101484.25;4904710;29;20044;-74
2024/03/19 10:09:11;;;;;;;8.65;5.13;;;;;;;12.48;47.09;101479.97;4917176;29;20048;-75
2024/03/19 10:11:38;;;;;;;7.50;4.95;;;;;;;12.53;47.22;101482.34;4911352;29;20043;-75
2024/03/19 10:14:05;;;;;;;9.57;4.97;;;;;;;12.58;47.59;101485.56;4900967;29;20435;-75
2024/03/19 10:16:32;;;;;;;8.65;5.32;;;;;;;12.63;47.14;101480.56;4903646;29;20044;-76
2024/03/19 10:18:59;;;;;;;6.68;4.13;;;;;;;12.68;47.04;101478.31;4886523;29;20416;-75
2024/03/19 10:21:26;;;;;;;9.45;4.95;;;;;;;12.74;47.48;101485.13;4903634;29;20040;-75
2024/03/19 10:23:53;;;;;;;6.82;4.53;;;;;;;12.79;47.03;101483.72;4905560;29;20415;-75
2024/03/19 10:26:22;;;;;;;8.43;4.13;;;;;;;12.88;46.86;101469.19;4887345;29;20099;-75
2024/03/19 10:28:49;;;;;;;6.20;4.40;;;;;;;12.93;47.19;101476.16;4881226;29;20051;-75
2024/03/19 10:31:16;;;;;;;7.30;4.57;;;;;;;12.99;47.39;101481.97;4919512;29;20048;-74
2024/03/19 10:33:45;;;;;;;8.98;4.90;;;;;;;13.06;46.79;101476.81;4885579;29;20040;-75
2024/03/19 10:36:23;;;;;;;7.00;4.18;;;;;;;13.13;46.28;101464.25;4920413;29;20040;-75
2024/03/19 10:38:51;;;;;;;6.88;4.10;;;;;;;13.19;47.21;101474.72;4898058;29;20044;-74
2024/03/19 10:41:19;;;;;;;9.88;4.25;;;;;;;13.26;47.15;101473.19;4903549;29;20424;-74
2024/03/19 10:43:48;;;;;;;9.68;4.45;;;;;;;13.33;46.51;101473.50;4905917;29;20051;-74
2024/03/19 10:46:17;;;;;;;6.78;4.47;;;;;;;13.38;46.93;101468.44;4905285;29;20032;-75
2024/03/19 10:48:45;;;;;;;9.10;4.80;;;;;;;13.44;46.47;101460.53;4898218;29;20043;-75
2024/03/19 10:51:12;;;;;;;7.75;4.90;;;;;;;13.51;46.82;101467.22;4886483;29;20519;-74
2024/03/19 10:53:41;;;;;;;9.65;4.88;;;;;;;13.57;46.92;101465.81;4902615;29;20039;-75
2024/03/19 10:56:09;;;;;;;8.32;4.43;;;;;;;13.63;46.41;101470.75;4903566;29;20082;-75
2024/03/19 10:58:36;;;;;;;7.22;4.38;;;;;;;13.67;45.90;101466.72;4906772;29;20052;-75
2024/03/19 11:01:05;;;;;;;8.45;4.00;;;;;;;13.74;46.26;101461.53;4886744;29;20071;-74
2024/03/19 11:03:32;;;;;;;7.50;4.30;;;;;;;13.75;46.28;101455.88;4879008;29;20044;-75
2024/03/19 11:06:04;;;;;;;6.40;4.00;;;;;;;13.81;45.56;101452.56;4898692;29;20072;-75
2024/03/19 11:08:37;;;;;;;7.13;3.65;;;;;;;13.81;45.64;101465.44;4898609;29;20073;-75
2024/03/19 11:11:08;;;;;;;6.38;3.67;;;;;;;13.88;46.01;101459.22;4897201;29;20052;-75
2024/03/19 11:13:35;;;;;;;6.07;3.17;;;;;;;13.92;46.02;101463.47;4911364;29;20047;-74
2024/03/19 11:16:14;;;;;;;5.63;3.20;;;;;;;13.99;45.06;101464.63;4888035;29;20412;-75
2024/03/19 11:18:45;;;;;;;5.85;3.22;;;;;;;14.04;45.62;101466.06;4893065;29;20293;-75
2024/03/19 11:21:19;;;;;;;5.47;3.28;;;;;;;14.10;44.93;101460.03;4883242;29;20524;-74
2024/03/19 11:23:47;;;;;;;5.93;3.13;;;;;;;14.13;45.48;101457.84;4874183;29;20079;-75